createdAt,value
2022-10-04T00:01:58.584Z,12.89
2022-10-04T00:04:47.525Z,12.86
2022-10-04T00:07:14.323Z,12.91
2022-10-04T00:09:43.769Z,13.17
2022-10-04T00:12:22.642Z,14.02
2022-10-04T00:15:00.635Z,13.78
2022-10-04T00:17:31.752Z,13.83
2022-10-04T00:19:59.029Z,13.80
2022-10-04T00:22:30.398Z,14.36
2022-10-04T00:25:07.487Z,14.02
2022-10-04T00:27:38.425Z,14.40
2022-10-04T00:30:05.218Z,14.56
2022-10-04T00:32:32.334Z,14.77
2022-10-04T00:35:00.282Z,14.52
2022-10-04T00:37:28.155Z,14.07
2022-10-04T00:40:17.073Z,15.12
2022-10-04T00:42:43.882Z,15.05
2022-10-04T00:45:37.466Z,15.00
2022-10-04T00:48:31.416Z,14.59
2022-10-04T00:51:19.657Z,14.78
2022-10-04T00:53:49.380Z,14.54
2022-10-04T00:56:23.311Z,14.86
2022-10-04T00:58:57.580Z,14.69
2022-10-04T01:01:26.937Z,14.56
2022-10-04T01:03:54.699Z,14.13
2022-10-04T01:06:22.168Z,14.29
2022-10-04T01:08:52.234Z,14.53
2022-10-04T01:11:22.337Z,14.46
2022-10-04T01:14:00.944Z,14.64
2022-10-04T01:16:29.547Z,14.69
2022-10-04T01:18:56.484Z,14.62
2022-10-04T01:21:29.765Z,14.62
2022-10-04T01:23:57.420Z,15.11
2022-10-04T01:26:30.398Z,14.57
2022-10-04T01:29:02.620Z,14.63
2022-10-04T01:31:30.852Z,14.62
2022-10-04T01:33:58.379Z,14.84
2022-10-04T01:36:25.622Z,14.80
2022-10-04T01:38:52.493Z,14.98
2022-10-04T01:41:22.465Z,15.54
2022-10-04T01:43:53.832Z,15.55
2022-10-04T01:46:27.378Z,14.89
2022-10-04T01:48:55.576Z,15.34
2022-10-04T01:51:27.115Z,14.95
2022-10-04T01:54:00.941Z,15.02
2022-10-04T01:56:31.959Z,15.11
2022-10-04T01:59:02.783Z,14.85
2022-10-04T02:01:38.540Z,14.37
2022-10-04T02:04:22.426Z,14.08
2022-10-04T02:06:54.331Z,14.38
2022-10-04T02:09:34.106Z,14.36
2022-10-04T02:12:01.620Z,14.06
2022-10-04T02:14:33.320Z,13.99
2022-10-04T02:17:02.311Z,14.10
2022-10-04T02:19:35.448Z,14.01
2022-10-04T02:22:04.398Z,14.30
2022-10-04T02:24:37.882Z,14.86
2022-10-04T02:27:05.973Z,15.26
2022-10-04T02:29:33.111Z,15.10
2022-10-04T02:32:19.137Z,15.53
2022-10-04T02:34:47.936Z,15.37
2022-10-04T02:37:15.482Z,15.15
2022-10-04T02:39:54.049Z,15.00
2022-10-04T02:42:48.038Z,14.96
2022-10-04T02:45:38.143Z,15.23
2022-10-04T02:48:13.825Z,15.18
2022-10-04T02:50:46.282Z,15.28
2022-10-04T02:53:19.705Z,15.14
2022-10-04T02:55:47.791Z,15.09
2022-10-04T02:58:18.524Z,15.24
2022-10-04T03:00:51.357Z,14.74
2022-10-04T03:03:32.210Z,15.31
2022-10-04T03:06:11.513Z,15.48
2022-10-04T03:08:58.222Z,15.20
2022-10-04T03:11:28.218Z,14.95
2022-10-04T03:13:57.439Z,15.07
2022-10-04T03:16:26.440Z,15.61
2022-10-04T03:18:57.228Z,15.60
2022-10-04T03:21:25.114Z,15.72
2022-10-04T03:23:52.936Z,15.72
2022-10-04T03:26:39.319Z,15.74
2022-10-04T03:29:10.423Z,15.37
2022-10-04T03:31:43.509Z,15.34
2022-10-04T03:34:15.105Z,15.52
2022-10-04T03:36:42.142Z,15.58
2022-10-04T03:39:11.577Z,14.92
2022-10-04T03:41:40.425Z,14.95
2022-10-04T03:44:13.544Z,15.05
2022-10-04T03:46:40.681Z,15.32
2022-10-04T03:49:08.428Z,15.42
2022-10-04T03:51:35.382Z,15.36
2022-10-04T03:54:07.146Z,15.58
2022-10-04T03:56:36.024Z,15.66
2022-10-04T03:59:04.977Z,15.95
2022-10-04T04:01:40.978Z,15.58
2022-10-04T04:04:22.284Z,15.44
2022-10-04T04:07:02.176Z,15.69
2022-10-04T04:09:43.408Z,15.71
2022-10-04T04:12:37.036Z,15.91
2022-10-04T04:15:07.372Z,15.03
2022-10-04T04:17:37.708Z,15.34
2022-10-04T04:20:08.410Z,15.19
2022-10-04T04:22:36.532Z,15.19
2022-10-04T04:25:06.325Z,15.50
2022-10-04T04:27:35.171Z,15.10
2022-10-04T04:30:04.240Z,15.92
2022-10-04T04:32:35.721Z,15.38
2022-10-04T04:35:09.029Z,15.08
2022-10-04T04:37:36.840Z,15.01
2022-10-04T04:40:21.322Z,14.78
2022-10-04T04:42:49.272Z,14.70
2022-10-04T04:45:19.967Z,14.58
2022-10-04T04:47:50.635Z,14.13
2022-10-04T04:50:18.544Z,14.25
2022-10-04T04:52:48.467Z,14.23
2022-10-04T04:55:22.731Z,14.19
2022-10-04T04:57:51.052Z,14.23
2022-10-04T05:00:21.270Z,13.90
2022-10-04T05:02:58.767Z,13.84
2022-10-04T05:05:35.162Z,13.86
2022-10-04T05:08:11.368Z,13.93
2022-10-04T05:10:42.550Z,14.16
2022-10-04T05:13:10.824Z,13.98
2022-10-04T05:15:40.240Z,14.37
2022-10-04T05:18:30.691Z,14.38
2022-10-04T05:21:03.500Z,14.64
2022-10-04T05:23:30.379Z,14.62
2022-10-04T05:26:00.538Z,14.47
2022-10-04T05:28:27.666Z,14.23
2022-10-04T05:31:10.652Z,14.62
2022-10-04T05:33:45.540Z,14.82
2022-10-04T05:36:13.891Z,14.64
2022-10-04T05:39:05.421Z,14.81
2022-10-04T05:41:40.174Z,14.70
2022-10-04T05:44:35.086Z,14.55
2022-10-04T05:47:03.393Z,14.85
2022-10-04T05:49:52.704Z,15.79
2022-10-04T05:52:30.634Z,15.70
2022-10-04T05:55:27.356Z,16.23
2022-10-04T05:58:06.677Z,15.56
2022-10-04T06:00:46.201Z,15.74
2022-10-04T06:03:16.038Z,16.14
2022-10-04T06:06:01.796Z,15.71
2022-10-04T06:08:35.006Z,16.29
2022-10-04T06:11:06.238Z,15.82
2022-10-04T06:13:40.454Z,16.42
2022-10-04T06:16:22.590Z,16.84
2022-10-04T06:19:15.263Z,15.84
2022-10-04T06:22:23.103Z,16.51
2022-10-04T06:25:10.871Z,16.32
2022-10-04T06:27:50.175Z,16.14
2022-10-04T06:30:19.241Z,16.18
2022-10-04T06:33:24.068Z,15.99
2022-10-04T06:36:08.893Z,16.42
2022-10-04T06:38:56.524Z,16.37
2022-10-04T06:41:25.892Z,16.18
2022-10-04T06:44:12.923Z,15.35
2022-10-04T06:46:48.054Z,15.99
2022-10-04T06:49:33.588Z,16.83
2022-10-04T06:52:16.638Z,17.57
2022-10-04T06:54:50.370Z,17.79
2022-10-04T06:57:17.147Z,17.32
2022-10-04T06:59:45.209Z,17.30
2022-10-04T07:02:22.397Z,16.08
2022-10-04T07:05:20.333Z,15.87
2022-10-04T07:08:06.658Z,16.00
2022-10-04T07:10:50.717Z,16.16
2022-10-04T07:13:39.126Z,15.48
2022-10-04T07:16:11.345Z,16.01
2022-10-04T07:19:01.984Z,16.11
2022-10-04T07:21:40.680Z,15.85
2022-10-04T07:24:10.442Z,16.33
2022-10-04T07:26:49.743Z,16.77
2022-10-04T07:29:23.678Z,17.64
2022-10-04T07:32:07.036Z,18.04
2022-10-04T07:34:47.083Z,17.86
2022-10-04T07:37:14.716Z,17.93
2022-10-04T07:39:53.519Z,18.26
2022-10-04T07:42:35.171Z,18.00
2022-10-04T07:45:21.022Z,18.19
2022-10-04T07:47:48.330Z,18.63
2022-10-04T07:50:21.403Z,18.49
2022-10-04T07:53:15.454Z,18.13
2022-10-04T07:56:10.109Z,17.54
2022-10-04T07:59:19.778Z,18.05
2022-10-04T08:02:01.463Z,16.80
2022-10-04T08:04:55.657Z,17.00
2022-10-04T08:07:53.086Z,16.86
2022-10-04T08:10:48.759Z,17.24
2022-10-04T08:13:41.813Z,16.95
2022-10-04T08:16:37.360Z,16.99
2022-10-04T08:19:38.551Z,16.42
2022-10-04T08:22:23.740Z,16.92
2022-10-04T08:25:01.607Z,17.42
2022-10-04T08:28:09.236Z,17.44
2022-10-04T08:31:10.012Z,17.59
2022-10-04T08:34:12.902Z,18.05
2022-10-04T08:36:50.345Z,17.03
2022-10-04T08:39:57.314Z,16.33
2022-10-04T08:42:34.190Z,17.88
2022-10-04T08:45:32.661Z,18.58
2022-10-04T08:48:30.535Z,18.29
2022-10-04T08:51:00.392Z,18.55
2022-10-04T08:53:49.178Z,19.89
2022-10-04T08:56:41.539Z,20.45
2022-10-04T08:59:17.758Z,19.29
2022-10-04T09:01:47.457Z,17.75
2022-10-04T09:04:45.426Z,18.87
2022-10-04T09:07:27.486Z,18.04
2022-10-04T09:10:25.160Z,19.34
2022-10-04T09:13:07.228Z,18.88
2022-10-04T09:15:52.470Z,19.59
2022-10-04T09:19:09.120Z,19.39
2022-10-04T09:22:13.789Z,18.71
2022-10-04T09:24:52.651Z,18.97
2022-10-04T09:27:56.997Z,18.91
2022-10-04T09:30:59.185Z,18.73
2022-10-04T09:33:44.074Z,19.00
2022-10-04T09:36:23.098Z,18.92
2022-10-04T09:39:11.527Z,18.13
2022-10-04T09:42:04.742Z,18.50
2022-10-04T09:45:09.790Z,18.31
2022-10-04T09:48:14.952Z,18.11
2022-10-04T09:51:13.329Z,18.03
2022-10-04T09:53:46.544Z,18.96
2022-10-04T09:56:19.501Z,18.41
2022-10-04T09:59:04.359Z,18.74
2022-10-04T10:01:42.645Z,18.79
2022-10-04T10:04:30.055Z,18.83
2022-10-04T10:07:28.395Z,18.75
2022-10-04T10:10:13.766Z,17.73
2022-10-04T10:13:14.139Z,18.27
2022-10-04T10:15:43.664Z,18.57
2022-10-04T10:18:41.045Z,17.51
2022-10-04T10:21:21.875Z,17.59
2022-10-04T10:24:27.121Z,17.41
2022-10-04T10:26:56.553Z,17.70
2022-10-04T10:29:32.375Z,17.54
2022-10-04T10:32:04.526Z,18.49
2022-10-04T10:34:52.749Z,18.59
2022-10-04T10:37:49.108Z,18.23
2022-10-04T10:40:37.817Z,18.21
2022-10-04T10:43:09.811Z,18.58
2022-10-04T10:45:52.809Z,18.96
2022-10-04T10:48:47.026Z,18.60
2022-10-04T10:51:20.675Z,18.71
2022-10-04T10:54:25.407Z,18.94
2022-10-04T10:57:59.399Z,19.35
2022-10-04T11:00:47.967Z,19.86
2022-10-04T11:03:27.269Z,19.47
2022-10-04T11:06:16.917Z,20.03
2022-10-04T11:09:04.809Z,19.64
2022-10-04T11:11:50.273Z,20.04
2022-10-04T11:14:42.482Z,19.78
2022-10-04T11:17:15.595Z,19.13
2022-10-04T11:20:11.364Z,20.02
2022-10-04T11:23:00.309Z,19.60
2022-10-04T11:25:55.062Z,19.44
2022-10-04T11:29:29.515Z,20.50
2022-10-04T11:32:02.140Z,19.60
2022-10-04T11:35:03.005Z,19.57
2022-10-04T11:38:15.934Z,19.63
2022-10-04T11:40:48.706Z,18.71
2022-10-04T11:43:43.108Z,19.74
2022-10-04T11:46:34.823Z,20.32
2022-10-04T11:49:46.301Z,20.28
2022-10-04T11:52:44.270Z,20.44
2022-10-04T11:55:39.089Z,20.50
2022-10-04T11:58:32.922Z,19.84
2022-10-04T12:01:39.046Z,19.27
2022-10-04T12:04:53.877Z,18.55
2022-10-04T12:07:46.729Z,18.90
2022-10-04T12:10:28.295Z,18.97
2022-10-04T12:13:40.509Z,19.84
2022-10-04T12:16:30.055Z,19.50
2022-10-04T12:19:27.655Z,19.12
2022-10-04T12:22:39.584Z,18.09
2022-10-04T12:25:32.376Z,18.36
2022-10-04T12:27:59.697Z,18.61
2022-10-04T12:30:36.492Z,18.88
2022-10-04T12:33:15.415Z,18.98
2022-10-04T12:36:20.810Z,18.50
2022-10-04T12:39:08.572Z,17.84
2022-10-04T12:41:35.214Z,17.83
2022-10-04T12:44:27.231Z,18.06
2022-10-04T12:47:09.668Z,18.48
2022-10-04T12:50:04.791Z,18.88
2022-10-04T12:52:47.468Z,19.59
2022-10-04T12:55:38.755Z,18.87
2022-10-04T12:58:39.080Z,18.64
2022-10-04T13:01:46.363Z,18.81
2022-10-04T13:08:07.077Z,18.85
2022-10-04T13:11:05.466Z,19.56
2022-10-04T13:13:41.517Z,19.73
2022-10-04T13:19:29.801Z,20.15
2022-10-04T13:22:06.435Z,19.65
2022-10-04T13:25:00.509Z,19.60
2022-10-04T13:27:48.483Z,19.48
2022-10-04T13:30:43.331Z,17.77
2022-10-04T13:33:10.269Z,18.65
2022-10-04T13:35:55.035Z,18.55
2022-10-04T13:38:32.936Z,18.72
2022-10-04T13:41:20.754Z,18.56
2022-10-04T13:43:52.533Z,18.37
2022-10-04T13:46:32.375Z,19.40
2022-10-04T13:49:25.929Z,19.12
2022-10-04T13:52:17.471Z,18.20
2022-10-04T13:55:13.591Z,18.91
2022-10-04T13:57:50.274Z,18.42
2022-10-04T14:00:39.340Z,18.56
2022-10-04T14:03:28.276Z,18.61
2022-10-04T14:06:08.518Z,19.79
2022-10-04T14:09:09.398Z,19.30
2022-10-04T14:11:54.439Z,19.67
2022-10-04T14:14:39.423Z,18.65
2022-10-04T14:17:23.883Z,19.23
2022-10-04T14:20:08.414Z,19.49
2022-10-04T14:22:53.905Z,19.48
2022-10-04T14:25:45.321Z,18.92
2022-10-04T14:28:45.678Z,18.99
2022-10-04T14:31:27.878Z,19.10
2022-10-04T14:34:25.844Z,18.92
2022-10-04T14:36:58.693Z,18.86
2022-10-04T14:39:44.034Z,18.62
2022-10-04T14:42:31.374Z,20.51
2022-10-04T14:45:35.389Z,20.53
2022-10-04T14:48:19.604Z,20.45
2022-10-04T14:51:15.077Z,21.03
2022-10-04T14:54:10.599Z,21.16
2022-10-04T14:56:51.219Z,20.71
2022-10-04T14:59:27.199Z,19.89
2022-10-04T15:02:12.177Z,21.01
2022-10-04T15:04:58.409Z,21.19
2022-10-04T15:07:49.375Z,20.95
2022-10-04T15:10:34.251Z,21.20
2022-10-04T15:13:11.866Z,20.87
2022-10-04T15:16:13.692Z,21.72
2022-10-04T15:18:54.792Z,21.74
2022-10-04T15:21:33.139Z,21.45
2022-10-04T15:24:31.356Z,20.35
2022-10-04T15:27:01.999Z,21.22
2022-10-04T15:30:11.931Z,21.61
2022-10-04T15:33:00.384Z,21.00
2022-10-04T15:35:33.174Z,20.24
2022-10-04T15:38:24.547Z,20.09
2022-10-04T15:41:04.636Z,20.51
2022-10-04T15:43:34.461Z,20.28
2022-10-04T15:46:05.007Z,20.81
2022-10-04T15:48:34.639Z,20.95
2022-10-04T15:51:14.055Z,21.00
2022-10-04T15:54:26.471Z,20.92
2022-10-04T15:56:56.479Z,20.61
2022-10-04T15:59:36.895Z,21.35
2022-10-04T16:02:29.012Z,21.32
2022-10-04T16:05:03.488Z,20.69
2022-10-04T16:07:55.909Z,20.91
2022-10-04T16:10:58.755Z,20.50
2022-10-04T16:13:49.668Z,20.00
2022-10-04T16:16:26.166Z,20.68
2022-10-04T16:19:09.987Z,21.02
2022-10-04T16:21:52.016Z,20.74
2022-10-04T16:24:18.807Z,20.71
2022-10-04T16:26:51.444Z,20.54
2022-10-04T16:29:43.665Z,20.15
2022-10-04T16:32:10.453Z,20.69
2022-10-04T16:34:45.680Z,21.61
2022-10-04T16:37:30.743Z,20.11
2022-10-04T16:40:09.669Z,20.38
2022-10-04T16:42:45.249Z,20.05
2022-10-04T16:45:12.439Z,19.91
2022-10-04T16:47:56.904Z,19.78
2022-10-04T16:50:51.731Z,20.27
2022-10-04T16:53:47.922Z,19.87
2022-10-04T16:56:18.786Z,20.21
2022-10-04T16:59:00.697Z,20.03
2022-10-04T17:02:00.769Z,19.21
2022-10-04T17:04:36.881Z,19.61
2022-10-04T17:07:14.725Z,19.65
2022-10-04T17:10:26.670Z,19.14
2022-10-04T17:13:21.550Z,18.94
2022-10-04T17:15:57.648Z,19.24
2022-10-04T17:18:51.373Z,18.37
2022-10-04T17:21:49.002Z,19.42
2022-10-04T17:24:20.174Z,18.63
2022-10-04T17:27:11.682Z,19.01
2022-10-04T17:30:11.779Z,17.81
2022-10-04T17:33:16.176Z,16.82
2022-10-04T17:36:07.109Z,17.88
2022-10-04T17:38:55.221Z,18.24
2022-10-04T17:41:28.090Z,18.97
2022-10-04T17:44:26.077Z,18.42
2022-10-04T17:47:15.920Z,18.34
2022-10-04T17:50:18.629Z,17.93
2022-10-04T17:53:08.657Z,18.20
2022-10-04T17:55:53.098Z,19.20
2022-10-04T17:58:24.476Z,18.63
2022-10-04T18:00:57.072Z,18.07
2022-10-04T18:03:32.153Z,18.30
2022-10-04T18:06:02.816Z,18.08
2022-10-04T18:08:38.460Z,17.39
2022-10-04T18:11:20.448Z,17.15
2022-10-04T18:13:51.423Z,16.87
2022-10-04T18:16:29.224Z,16.79
2022-10-04T18:18:56.332Z,16.78
2022-10-04T18:21:32.569Z,16.92
2022-10-04T18:24:20.070Z,16.39
2022-10-04T18:27:01.123Z,16.39
2022-10-04T18:29:43.669Z,16.84
2022-10-04T18:32:31.767Z,16.30
2022-10-04T18:35:01.690Z,17.23
2022-10-04T18:37:34.004Z,17.56
2022-10-04T18:40:16.286Z,17.40
2022-10-04T18:42:50.030Z,16.94
2022-10-04T18:45:26.029Z,16.15
2022-10-04T18:47:53.704Z,15.91
2022-10-04T18:50:20.535Z,15.82
2022-10-04T18:53:24.710Z,15.37
2022-10-04T18:56:03.587Z,15.00
2022-10-04T18:58:59.342Z,15.51
2022-10-04T19:02:03.334Z,15.53
2022-10-04T19:05:13.693Z,15.20
2022-10-04T19:07:43.013Z,14.34
2022-10-04T19:10:42.796Z,15.68
2022-10-04T19:13:23.531Z,16.91
2022-10-04T19:16:15.819Z,17.63
2022-10-04T19:18:54.309Z,16.31
2022-10-04T19:21:27.216Z,15.11
2022-10-04T19:24:18.986Z,14.54
2022-10-04T19:26:48.633Z,14.70
2022-10-04T19:29:31.240Z,14.24
2022-10-04T19:32:33.816Z,13.57
2022-10-04T19:35:03.628Z,13.25
2022-10-04T19:37:40.378Z,15.40
2022-10-04T19:40:36.350Z,15.11
2022-10-04T19:43:10.745Z,14.97
2022-10-04T19:46:09.423Z,13.88
2022-10-04T19:48:50.101Z,15.23
2022-10-04T19:51:45.992Z,15.36
2022-10-04T19:54:15.895Z,15.39
2022-10-04T19:56:47.291Z,14.73
2022-10-04T19:59:19.225Z,15.00
2022-10-04T20:01:46.402Z,15.13
2022-10-04T20:04:35.483Z,15.56
2022-10-04T20:07:20.681Z,15.58
2022-10-04T20:10:08.848Z,15.83
2022-10-04T20:12:45.165Z,15.50
2022-10-04T20:15:18.219Z,16.01
2022-10-04T20:17:47.665Z,16.14
2022-10-04T20:20:17.490Z,14.98
2022-10-04T20:22:50.496Z,14.92
2022-10-04T20:25:49.514Z,15.11
2022-10-04T20:28:43.471Z,15.81
2022-10-04T20:31:13.202Z,15.64
2022-10-04T20:33:40.322Z,15.77
2022-10-04T20:36:12.291Z,15.33
2022-10-04T20:38:54.243Z,15.87
2022-10-04T20:41:53.210Z,15.42
2022-10-04T20:44:43.131Z,16.16
2022-10-04T20:47:20.130Z,15.02
2022-10-04T20:49:47.095Z,15.53
2022-10-04T20:52:15.265Z,15.61
2022-10-04T20:54:53.415Z,16.09
2022-10-04T20:57:24.088Z,16.10
2022-10-04T20:59:55.575Z,15.88
2022-10-04T21:02:24.778Z,15.86
2022-10-04T21:04:54.325Z,16.05
2022-10-04T21:07:23.404Z,15.77
2022-10-04T21:09:51.026Z,15.58
2022-10-04T21:12:32.671Z,15.33
2022-10-04T21:15:13.324Z,15.20
2022-10-04T21:17:40.186Z,14.61
2022-10-04T21:20:14.664Z,14.19
2022-10-04T21:22:42.208Z,14.91
2022-10-04T21:25:31.296Z,14.37
2022-10-04T21:28:24.139Z,13.91
2022-10-04T21:30:51.099Z,13.64
2022-10-04T21:33:17.940Z,13.25
2022-10-04T21:35:44.841Z,13.92
2022-10-04T21:38:11.756Z,13.81
2022-10-04T21:40:38.674Z,14.61
2022-10-04T21:43:05.484Z,14.92
2022-10-04T21:45:32.203Z,14.84
2022-10-04T21:47:59.058Z,15.06
2022-10-04T21:50:25.767Z,14.87
2022-10-04T21:52:52.629Z,14.68
2022-10-04T21:55:19.531Z,15.00
2022-10-04T21:57:46.447Z,14.98
2022-10-04T22:00:13.639Z,15.33
2022-10-04T22:02:40.510Z,15.12
2022-10-04T22:05:07.640Z,15.25
2022-10-04T22:07:34.521Z,15.18
2022-10-04T22:10:01.402Z,14.69
2022-10-04T22:12:28.266Z,14.81
2022-10-04T22:14:55.170Z,15.84
2022-10-04T22:17:22.019Z,16.18
2022-10-04T22:19:50.051Z,16.17
2022-10-04T22:22:17.422Z,15.58
2022-10-04T22:24:44.395Z,15.14
2022-10-04T22:27:15.849Z,15.34
2022-10-04T22:29:43.345Z,15.71
2022-10-04T22:32:25.944Z,15.49
2022-10-04T22:34:59.106Z,15.45
2022-10-04T22:37:26.175Z,16.25
2022-10-04T22:39:53.280Z,15.51
2022-10-04T22:42:21.312Z,16.15
2022-10-04T22:44:48.151Z,15.84
2022-10-04T22:47:15.530Z,15.59
2022-10-04T22:49:44.504Z,15.28
2022-10-04T22:52:15.524Z,16.12
2022-10-04T22:54:47.483Z,15.34
2022-10-04T22:57:15.899Z,15.75
2022-10-04T22:59:47.487Z,15.18
2022-10-04T23:02:18.277Z,15.23
2022-10-04T23:05:18.250Z,15.53
2022-10-04T23:07:46.299Z,15.12
2022-10-04T23:10:15.089Z,15.18
2022-10-04T23:12:45.515Z,14.47
2022-10-04T23:15:18.458Z,14.32
2022-10-04T23:23:23.649Z,15.36
2022-10-04T23:25:51.152Z,15.30
2022-10-04T23:28:19.242Z,14.58
2022-10-04T23:30:50.270Z,13.81
2022-10-04T23:33:20.431Z,14.21
2022-10-04T23:35:48.351Z,14.46
2022-10-04T23:38:17.353Z,14.25
2022-10-04T23:40:45.541Z,13.87
2022-10-04T23:43:22.152Z,13.93
2022-10-04T23:45:49.051Z,13.75
2022-10-04T23:48:22.688Z,14.19
2022-10-04T23:50:50.166Z,13.94
2022-10-04T23:53:24.254Z,14.73
2022-10-04T23:55:51.153Z,14.47
